Database: COMPET-N - COOP - 3PL - 4PL - CNDOOM

WAD: Doom | Doom 2 | TNT | Plutonia | AV | HR | Scythe | MM | MM2 | Requiem | CE
Category: speed | nmare | max | nm100s | tyson | pacifist | fast | respawn | nomo | misc | built | all
Highscore: ALL | IWAD | PWAD | Country | Continent

< Previous map       Next map >
Remove: wad | map | category | player | allMAP26
MapPlayerTimeDateFilenameCommentsDL
MAP26: The Abandoned MinesVincent Catalaa41.002000-08-18lv26-041.zip - 200
MAP26: The Abandoned MinesHenning Skogsto42.002000-03-22lv26-042.zip - 98
MAP26: The Abandoned MinesVincent Catalaa43.002000-03-14lv26-043.zip - 110
MAP26: The Abandoned MinesAdam Williamson44.002000-02-07lv26-044.zip - 138
MAP26: The Abandoned MinesHenning Skogsto45.001999-05-24lv26-045.zip - 98
MAP26: The Abandoned MinesThomas Pilger51.001998-03-27lv26-051.zip - 102
MAP26: The Abandoned MinesDaniel Lindgren53.001996-11-20lv26-053.zip - 118
MAP26: The Abandoned MinesThomas Pilger54.001998-01-24lv26-054.zip - 97
MAP26: The Abandoned MinesKai-Uwe Humpert55.001997-01-15lv26-055.zip - 91
MAP26: The Abandoned MinesDaniel Lindgren1:01.001996-06-11lv26-101.zip - 109
MAP26: The Abandoned MinesKai-Uwe Humpert1:02.001996-05-13lv26-102.zip - 104
MAP26: The Abandoned MinesDaniel Lindgren1:11.001996-03-21lv26-111.zip - 83
MAP26: The Abandoned MinesMichael Kren1:16.001996-02-07lv26-116.zip - 73
MAP26: The Abandoned MinesDaniel Lindgren1:22.001996-02-27lv26-122.zip - 104
MAP26: The Abandoned MinesIstvan Pataki1:41.001996-02-18lv26-141.zip - 76
MAP26: The Abandoned MinesIstvan Pataki1:47.001996-01-17lv26-147.zip - 73
MAP26: The Abandoned MinesJakub Razak46.002003-07-06nm26-046.zip - 249
MAP26: The Abandoned MinesHenning Skogsto47.002000-03-22nm26-047.zip - 97
MAP26: The Abandoned MinesVincent Catalaa49.002000-03-11nm26-049.zip - 90
MAP26: The Abandoned MinesHenning Skogsto52.001999-05-05nm26-052.zip - 92
MAP26: The Abandoned MinesAdam Hegyi57.001999-05-02nm26-057.zip - 100
MAP26: The Abandoned MinesHenning Skogsto1:02.001999-04-30nm26-102.zip - 85
MAP26: The Abandoned MinesThomas Pilger1:08.001998-07-08nm26-108.zip - 82
MAP26: The Abandoned MinesAdam Hegyi1:12.001998-06-02nm26-112.zip - 95
MAP26: The Abandoned MinesThomas Pilger1:20.001998-05-01nm26-120.zip - 95
MAP26: The Abandoned MinesIstvan Pataki1:58.001997-08-28nm26-158.zip - 82
MAP26: The Abandoned MinesAndreas Kren2:35.001996-05-29nm26-235.zip - 60
MAP26: The Abandoned MinesRadek Pecka3:09.002004-01-18lv26-309.zip - 191
MAP26: The Abandoned MinesHenning Skogsto3:41.001998-07-01lv26-341.zip - 97
MAP26: The Abandoned MinesDaniel Lindgren3:44.001997-06-26lv26-344.zip - 110
MAP26: The Abandoned MinesDaniel Lindgren5:35.001995-11-26lv26-535.zip - 121
MAP26: The Abandoned MinesEric Mullins6:04.001995-09-08lv26-604.zip - 89
MAP26: The Abandoned MinesIan Jefferies15:23.001995-03-10l26-1523.zip - 142
MAP26: The Abandoned MinesArtem Safronov1:11.002005-11-19ns26-111.zip - 725
MAP26: The Abandoned MinesHenning Skogsto1:17.002000-03-11ns26-117.zip - 108
MAP26: The Abandoned MinesMarijo Sedlić1:19.001999-09-03ns26-119.zip - 120
MAP26: The Abandoned MinesHenning Skogsto1:25.001999-08-12ns26-125.zip - 98
MAP26: The Abandoned MinesMarijo Sedlić1:31.001999-07-20ns26-131.zip - 113
MAP26: The Abandoned MinesIstvan Pataki2:55.001998-12-31ns26-255.zip - 121
MAP26: The Abandoned MinesJim Leonard23:46.002006-02-03ty262346.zip - 243
MAP26: The Abandoned MinesDaniel Lindgren27:55.001997-06-16ty262755.zip - 119
MAP26: The Abandoned MinesJim Leonard11:53.002008-03-01pa261153.zip - 253
MAP26: The Abandoned MinesHenning Skogsto3:55.002000-02-15fa26-355.zip - 197
MAP26: The Abandoned MinesVincent Catalaa5:30.002000-02-01fa26-530.zip - 105
MAP26: The Abandoned MinesHenning Skogsto6:12.001999-02-05fa26-612.zip - 109
MAP26: The Abandoned MinesIstvan Pataki8:00.001997-04-01fa26-800.zip - 112
MAP26: The Abandoned MinesPeo Sjoblom18:24.001996-08-10f26-1824.zip - 97
MAP26: The Abandoned MinesJakub Razak2:32.002003-12-10re26-232.zip - 216
MAP26: The Abandoned MinesZvonimir Bužanić2:39.002000-12-01re26-239.zip - 132
MAP26: The Abandoned MinesHenning Skogsto2:44.001999-09-04re26-244.zip - 94
MAP26: The Abandoned MinesZvonimir Bužanić2:50.001999-09-16re26-250.zip - 114
MAP26: The Abandoned MinesHenning Skogsto2:53.001999-08-13re26-253.zip - 98
MAP26: The Abandoned MinesJan Endre Jansen3:39.001998-09-21re26-339.zip - 56
MAP26: The Abandoned MinesSteffen Udluft4:12.001997-11-10re26-412.zip - 90
MAP26: The Abandoned MinesSteffen Udluft5:48.001997-05-05re26-548.zip - 77
MAP26: The Abandoned MinesLooper 29.972011-08-26d2602997.zip - 230
MAP26: The Abandoned MinesAdam Hegyi33.221999-05-09d2603322.zip - 102
Remove: wad | map | category | player | all